Flight Track Log - Related Links

Times and Time Zones

All times are in EDT time to prevent confusion due to time zone crossing. See the N500HY flight status page for this flight to view local times or setup timezone preferences in your user account.

Time Position Orientation Groundspeed Altitude Reporting Facility
EDT Latitude Longitude Course Direction KTS MPH feet Rate Location/Type
Wed 05:11:20 PM 39.7167 -86.2667 123° Southeast 177 204 1,200  Level Indianapolis TRACON
Wed 05:12:20 PM 39.6833 -86.2000 123° Southeast 227 261 3,400 2,474 Climbing Indianapolis TRACON
Wed 05:13:14 PM 39.7167 -86.1167 63° Northeast 265 305 5,900 3,000 Climbing Indianapolis TRACON
Wed 05:14:20 PM 39.7411 -86.0311 70° East 249 287 9,400 3,000 Climbing Indianapolis Center
Wed 05:15:22 PM 39.7672 -85.9511 67° East 244 281 12,300 2,032 Climbing Indianapolis Center
Wed 05:16:24 PM 39.7839 -85.8628 76° East 253 291 13,600 1,500 Climbing Indianapolis Center
Wed 05:17:26 PM 39.7989 -85.7719 78° East 258 297 15,400 1,694 Climbing Indianapolis Center
Wed 05:18:28 PM 39.7961 -85.6731 92° East 285 328 17,100 1,694 Climbing Indianapolis Center
Wed 05:19:30 PM 39.7758 -85.5742 105° East 284 327 18,900 1,887 Climbing Indianapolis Center
Wed 05:20:32 PM 39.7575 -85.4467 101° East 298 343 21,000 1,790 Climbing Indianapolis Center
Wed 05:21:34 PM 39.7419 -85.3314 100° East 320 368 22,600 1,161 Climbing Indianapolis Center
Wed 05:22:36 PM 39.7092 -85.2100 109° East 356 410 23,400 1,210 Climbing Indianapolis Center
Wed 05:23:38 PM 39.6519 -85.0919 122° Southeast 383 441 25,100 1,500 Climbing Indianapolis Center
Wed 05:24:40 PM 39.5969 -84.9733 121° Southeast 386 444 26,500 1,355 Climbing Indianapolis Center
Wed 05:25:42 PM 39.5294 -84.8311 122° Southeast 389 448 27,900 1,258 Climbing Indianapolis Center
Wed 05:26:44 PM 39.4717 -84.7039 120° Southeast 399 459 29,100 1,210 Climbing Indianapolis Center
Wed 05:27:46 PM 39.4111 -84.5769 122° Southeast 409 471 30,400 1,258 Climbing Indianapolis Center
Wed 05:28:48 PM 39.3511 -84.4500 121° Southeast 411 473 31,700 1,306 Climbing Indianapolis Center
Wed 05:29:50 PM 39.3008 -84.3206 117° Southeast 403 464 33,100 1,113 Climbing Indianapolis Center
Wed 05:30:52 PM 39.2586 -84.1867 112° Southeast 401 461 34,000 1,016 Climbing Indianapolis Center
Wed 05:31:54 PM 39.2094 -84.0300 112° Southeast 403 464 35,200 1,065 Climbing Indianapolis Center
Wed 05:32:56 PM 39.1686 -83.8922 111° Southeast 408 470 36,200 871 Climbing Indianapolis Center
Wed 05:33:58 PM 39.1175 -83.7619 117° Southeast 412 474 37,000 387 Climbing Indianapolis Center
Wed 05:35:00 PM 39.0533 -83.6342 123° Southeast 423 487 37,000  Level Indianapolis Center
Wed 05:36:02 PM 38.9853 -83.5017 123° Southeast 438 504 37,000  Level Indianapolis Center
Wed 05:37:04 PM 38.9172 -83.3603 122° Southeast 455 524 37,000  Level Indianapolis Center
Wed 05:38:06 PM 38.8475 -83.2250 123° Southeast 458 527 37,000  Level Indianapolis Center
Wed 05:39:07 PM 38.7700 -83.0664 122° Southeast 458 527 37,000  Level Indianapolis Center
Wed 05:40:09 PM 38.7006 -82.9272 123° Southeast 461 531 37,000  Level Indianapolis Center
Wed 05:41:11 PM 38.6256 -82.7803 123° Southeast 470 541 37,000  Level Indianapolis Center
Wed 05:42:13 PM 38.5528 -82.6397 123° Southeast 473 544 37,000  Level Indianapolis Center
Wed 05:43:15 PM 38.4806 -82.4997 123° Southeast 473 544 37,000  Level Indianapolis Center
Wed 05:44:17 PM 38.4117 -82.3675 124° Southeast 472 543 37,000  Level Indianapolis Center
Wed 05:45:19 PM 38.3258 -82.2025 124° Southeast 468 539 37,000  Level Indianapolis Center
Wed 05:46:21 PM 38.2558 -82.0678 123° Southeast 460 529 37,000  Level Indianapolis Center
Wed 05:47:22 PM 38.1847 -81.9308 123° Southeast 464 534 37,000  Level Indianapolis Center
Wed 05:48:24 PM 38.1133 -81.7958 124° Southeast 464 534 37,000  Level Indianapolis Center
Wed 05:49:26 PM 38.0417 -81.6614 124° Southeast 463 533 37,000  Level Indianapolis Center
Wed 05:50:28 PM 37.9708 -81.5281 124° Southeast 459 528 37,000  Level Indianapolis Center
Wed 05:51:30 PM 37.8861 -81.3686 124° Southeast 458 527 37,000  Level Indianapolis Center
Wed 05:52:31 PM 37.8167 -81.2358 123° Southeast 455 524 37,000  Level Indianapolis Center
Wed 05:53:33 PM 37.7464 -81.1072 125° Southeast 456 525 37,000  Level Indianapolis Center
Wed 05:54:29 PM 37.6728 -80.9758 125° Southeast 455 524 37,000  Level Washington Center
Wed 05:55:29 PM 37.6072 -80.8533 124° Southeast 461 531 37,000  Level Washington Center
Wed 05:56:30 PM 37.5339 -80.7197 125° Southeast 461 531 37,000 -347 Level Washington Center
Wed 05:57:30 PM 37.4622 -80.5867 124° Southeast 466 536 36,300 -1,140 Descending Washington Center
Wed 05:58:31 PM 37.3808 -80.4378 124° Southeast 475 547 34,700 -1,475 Descending Washington Center
Wed 05:59:32 PM 37.3069 -80.3025 124° Southeast 475 547 33,300 -1,412 Descending Washington Center
Wed 06:00:30 PM 37.2289 -80.1594 124° Southeast 482 555 31,900 -1,475 Descending Washington Center
Wed 06:01:30 PM 37.1467 -80.0164 126° Southeast 494 568 30,400 -1,438 Descending Washington Center
Wed 06:02:31 PM 37.0764 -79.8822 123° Southeast 505 581 29,000 -1,190 Descending Washington Center
Wed 06:03:31 PM 36.9961 -79.7397 125° Southeast 510 587 28,000 -508 Descending Washington Center
Wed 06:04:29 PM 36.9153 -79.5978 125° Southeast 510 587 28,000  Level Washington Center
Wed 06:05:30 PM 36.8306 -79.4428 124° Southeast 510 587 28,000  Level Washington Center
Wed 06:06:30 PM 36.7514 -79.3067 126° Southeast 510 587 28,000 -350 Level Washington Center
Wed 06:07:30 PM 36.6725 -79.1631 124° Southeast 505 581 27,300 -1,140 Descending Washington Center
Wed 06:08:31 PM 36.6050 -79.0461 126° Southeast 498 573 25,700 -1,636 Descending Washington Center
Wed 06:09:31 PM 36.5275 -78.9108 125° Southeast 485 558 24,000 -864 Descending Washington Center
Wed 06:10:29 PM 36.4517 -78.7786 125° Southeast 480 552 24,000  Level Washington Center
Wed 06:11:29 PM 36.3719 -78.6411 126° Southeast 480 552 24,000 -694 Level Washington Center
Wed 06:12:30 PM 36.3000 -78.5119 125° Southeast 475 547 22,600 -1,900 Descending Washington Center
Wed 06:13:29 PM 36.2258 -78.3856 126° Southeast 470 541 20,200 -2,550 Descending Washington Center
Wed 06:14:30 PM 36.1453 -78.2492 126° Southeast 452 520 17,500 -2,380 Descending Washington Center
Wed 06:15:30 PM 36.0850 -78.1467 126° Southeast 435 501 15,400 -1,339 Descending Washington Center
Wed 06:16:31 PM 36.0225 -78.0369 125° Southeast 406 467 14,800 -1,462 Descending Washington Center
Wed 06:17:29 PM 35.9642 -77.9400 127° Southeast 375 432 12,500 -2,390 Descending Washington Center
Wed 06:18:29 PM 35.9114 -77.8514 126° Southeast 347 399 10,100 -2,132 Descending Washington Center
Wed 06:19:30 PM 35.8631 -77.7681 126° Southeast 318 366 8,200 -1,934 Descending Washington Center
Wed 06:20:30 PM 35.8183 -77.6900 125° Southeast 298 343 6,200 -2,000 Descending Washington Center

Login

Don't have an account? Register now (free) for customized features, flight alerts, and more!